createdAt,value
2024-01-29T00:01:26.195Z,8.50
2024-01-29T00:09:34.598Z,8.40
2024-01-29T00:17:40.247Z,8.50
2024-01-29T00:25:48.733Z,8.50
2024-01-29T00:33:55.978Z,8.50
2024-01-29T00:42:04.270Z,8.40
2024-01-29T00:50:10.651Z,8.50
2024-01-29T00:58:19.508Z,8.30
2024-01-29T01:06:25.150Z,7.90
2024-01-29T01:14:33.494Z,7.30
2024-01-29T01:22:39.157Z,7.10
2024-01-29T01:30:47.446Z,7.50
2024-01-29T01:38:53.161Z,7.80
2024-01-29T01:47:01.738Z,7.50
2024-01-29T01:55:07.888Z,7.50
2024-01-29T02:03:16.113Z,7.30
2024-01-29T02:11:21.742Z,7.20
2024-01-29T02:19:30.277Z,7.20
2024-01-29T02:27:38.698Z,7.20
2024-01-29T02:35:44.429Z,7.30
2024-01-29T02:43:52.658Z,7.40
2024-01-29T02:51:58.264Z,7.80
2024-01-29T03:00:06.939Z,7.30
2024-01-29T03:08:12.824Z,7.10
2024-01-29T03:16:21.288Z,7.40
2024-01-29T03:24:26.889Z,6.70
2024-01-29T03:32:35.487Z,6.70
2024-01-29T03:40:41.653Z,6.50
2024-01-29T03:48:50.119Z,6.70
2024-01-29T03:56:55.847Z,6.70
2024-01-29T04:05:04.759Z,6.30
2024-01-29T04:13:10.559Z,6.70
2024-01-29T04:21:19.558Z,7.00
2024-01-29T04:29:25.160Z,6.40
2024-01-29T04:37:33.378Z,6.70
2024-01-29T04:45:39.088Z,6.80
2024-01-29T04:53:47.379Z,6.00
2024-01-29T05:01:53.140Z,6.10
2024-01-29T05:10:01.402Z,5.60
2024-01-29T05:18:08.106Z,5.90
2024-01-29T05:26:16.860Z,6.20
2024-01-29T05:34:23.312Z,6.00
2024-01-29T05:42:31.665Z,5.80
2024-01-29T05:50:37.352Z,5.60
2024-01-29T05:58:48.008Z,5.80
2024-01-29T06:06:53.848Z,5.80
2024-01-29T06:15:02.234Z,6.10
2024-01-29T06:23:10.443Z,5.60
2024-01-29T06:31:18.749Z,5.40
2024-01-29T06:39:25.778Z,5.00
2024-01-29T06:47:34.113Z,5.10
2024-01-29T06:55:39.897Z,5.10
2024-01-29T07:03:48.101Z,5.20
2024-01-29T07:11:53.696Z,5.80
2024-01-29T07:20:03.805Z,5.90
2024-01-29T07:28:10.477Z,5.50
2024-01-29T07:36:18.812Z,4.10
2024-01-29T07:44:24.442Z,4.40
2024-01-29T07:52:32.669Z,5.40
2024-01-29T08:00:38.367Z,4.70
2024-01-29T08:08:47.725Z,5.00
2024-01-29T08:16:53.438Z,5.70
2024-01-29T08:25:01.677Z,5.60
2024-01-29T08:33:07.800Z,6.60
2024-01-29T08:41:17.086Z,7.70
2024-01-29T08:49:22.779Z,9.40
2024-01-29T08:57:32.070Z,13.20
2024-01-29T09:05:37.690Z,17.50
2024-01-29T09:13:45.987Z,20.00
2024-01-29T09:21:55.012Z,21.80
2024-01-29T09:30:03.250Z,23.80
2024-01-29T09:38:08.794Z,25.90
2024-01-29T09:46:19.620Z,26.70
2024-01-29T09:54:25.445Z,24.30
2024-01-29T10:02:36.638Z,23.90
2024-01-29T10:10:42.298Z,25.20
2024-01-29T10:19:00.192Z,25.90
2024-01-29T10:27:10.539Z,21.70
2024-01-29T10:35:19.379Z,17.00
2024-01-29T10:43:28.839Z,14.00
2024-01-29T10:51:38.581Z,12.70
2024-01-29T10:59:46.096Z,12.00
2024-01-29T11:07:55.898Z,11.30
2024-01-29T11:16:01.532Z,10.30
2024-01-29T11:24:14.981Z,10.60
2024-01-29T11:32:20.536Z,10.60
2024-01-29T11:40:40.003Z,10.50
2024-01-29T11:48:45.974Z,10.30
2024-01-29T11:56:57.115Z,10.40
2024-01-29T12:05:03.573Z,10.00
2024-01-29T12:13:15.788Z,10.10
2024-01-29T12:21:21.743Z,9.80
2024-01-29T12:29:30.373Z,9.40
2024-01-29T12:37:36.059Z,9.40
2024-01-29T12:45:46.728Z,9.50
2024-01-29T12:53:59.386Z,9.50
2024-01-29T13:02:07.658Z,9.50
2024-01-29T13:10:13.889Z,9.70
2024-01-29T13:18:23.164Z,10.00
2024-01-29T13:26:30.781Z,9.60
2024-01-29T13:34:39.047Z,8.90
2024-01-29T13:42:44.900Z,8.70
2024-01-29T13:50:53.501Z,8.30
2024-01-29T13:59:02.151Z,8.80
2024-01-29T14:07:12.237Z,9.30
2024-01-29T14:15:19.072Z,9.20
2024-01-29T14:23:27.606Z,9.00
2024-01-29T14:31:33.262Z,8.90
2024-01-29T14:39:41.535Z,8.10
2024-01-29T14:47:50.000Z,7.80
2024-01-29T14:55:58.235Z,7.60
2024-01-29T15:04:07.390Z,8.00
2024-01-29T15:12:16.961Z,8.00
2024-01-29T15:20:22.638Z,7.90
2024-01-29T15:28:30.920Z,8.00
2024-01-29T15:36:37.082Z,8.00
2024-01-29T15:44:46.027Z,8.00
2024-01-29T15:52:51.867Z,8.10
2024-01-29T16:01:00.215Z,7.80
2024-01-29T16:09:06.054Z,7.70
2024-01-29T16:17:14.209Z,7.60
2024-01-29T16:25:22.985Z,7.40
2024-01-29T16:33:33.203Z,7.50
2024-01-29T16:41:39.409Z,7.50
2024-01-29T16:49:48.380Z,7.40
2024-01-29T16:57:54.263Z,7.30
2024-01-29T17:06:03.232Z,7.00
2024-01-29T17:14:11.409Z,7.40
2024-01-29T17:22:19.923Z,7.40
2024-01-29T17:30:25.577Z,7.20
2024-01-29T17:38:33.770Z,7.20
2024-01-29T17:46:39.405Z,6.90
2024-01-29T17:54:47.678Z,6.60
2024-01-29T18:02:53.414Z,6.90
2024-01-29T18:11:03.935Z,6.60
2024-01-29T18:19:09.702Z,7.00
2024-01-29T18:27:18.196Z,7.10
2024-01-29T18:35:23.982Z,6.90
2024-01-29T18:43:32.260Z,7.10
2024-01-29T18:51:39.597Z,7.10
2024-01-29T18:59:48.093Z,6.50
2024-01-29T19:07:54.183Z,6.40
2024-01-29T19:16:04.529Z,6.10
2024-01-29T19:24:10.843Z,6.00
2024-01-29T19:32:19.066Z,6.10
2024-01-29T19:40:24.855Z,6.10
2024-01-29T19:48:41.239Z,5.70
2024-01-29T19:56:46.989Z,5.90
2024-01-29T20:04:56.358Z,5.90
2024-01-29T20:13:05.592Z,6.20
2024-01-29T20:21:15.063Z,5.90
2024-01-29T20:29:21.062Z,5.70
2024-01-29T20:37:29.296Z,5.40
2024-01-29T20:45:35.054Z,5.70
2024-01-29T20:53:43.273Z,5.40
2024-01-29T21:01:49.339Z,5.70
2024-01-29T21:18:22.207Z,5.30
2024-01-29T21:26:33.469Z,5.40
2024-01-29T21:34:39.136Z,5.30
2024-01-29T21:42:47.542Z,5.30
2024-01-29T21:50:53.843Z,5.10
2024-01-29T21:59:01.968Z,5.00
2024-01-29T22:07:11.349Z,5.00
2024-01-29T22:15:19.753Z,5.00
2024-01-29T22:23:25.347Z,4.90
2024-01-29T22:31:33.605Z,4.90
2024-01-29T22:39:39.557Z,5.00
2024-01-29T22:47:48.212Z,5.00
2024-01-29T22:55:54.726Z,4.70
2024-01-29T23:04:03.306Z,4.70
2024-01-29T23:12:09.778Z,4.90
2024-01-29T23:20:18.287Z,4.50
2024-01-29T23:28:27.683Z,4.40
2024-01-29T23:36:36.044Z,4.50
2024-01-29T23:44:41.695Z,3.70
2024-01-29T23:52:49.932Z,3.90
